sensor_id;sensor_type;location;lat;lon;timestamp;P1;durP1;ratioP1;P2;durP2;ratioP2
73428;SDS011;61643;49.564;17.412;2023-12-22T00:01:30;3.40;;;0.45;;
73428;SDS011;61643;49.564;17.412;2023-12-22T00:03:56;2.92;;;0.65;;
73428;SDS011;61643;49.564;17.412;2023-12-22T00:06:22;2.33;;;0.55;;
73428;SDS011;61643;49.564;17.412;2023-12-22T00:08:48;1.20;;;0.60;;
73428;SDS011;61643;49.564;17.412;2023-12-22T00:11:14;0.98;;;0.22;;
73428;SDS011;61643;49.564;17.412;2023-12-22T00:13:40;1.85;;;0.73;;
73428;SDS011;61643;49.564;17.412;2023-12-22T00:16:06;2.42;;;0.45;;
73428;SDS011;61643;49.564;17.412;2023-12-22T00:18:32;6.50;;;1.05;;
73428;SDS011;61643;49.564;17.412;2023-12-22T00:20:58;3.78;;;0.50;;
73428;SDS011;61643;49.564;17.412;2023-12-22T00:23:24;3.92;;;0.70;;
73428;SDS011;61643;49.564;17.412;2023-12-22T00:25:50;1.20;;;0.55;;
73428;SDS011;61643;49.564;17.412;2023-12-22T00:28:16;2.88;;;0.82;;
73428;SDS011;61643;49.564;17.412;2023-12-22T00:30:42;1.23;;;0.32;;
73428;SDS011;61643;49.564;17.412;2023-12-22T00:33:08;6.70;;;0.90;;
73428;SDS011;61643;49.564;17.412;2023-12-22T00:35:34;5.18;;;0.80;;
73428;SDS011;61643;49.564;17.412;2023-12-22T00:38:01;4.57;;;0.57;;
73428;SDS011;61643;49.564;17.412;2023-12-22T00:40:27;2.30;;;0.65;;
73428;SDS011;61643;49.564;17.412;2023-12-22T00:42:53;2.22;;;0.70;;
73428;SDS011;61643;49.564;17.412;2023-12-22T00:45:19;5.70;;;1.10;;
73428;SDS011;61643;49.564;17.412;2023-12-22T00:47:45;3.42;;;0.85;;
73428;SDS011;61643;49.564;17.412;2023-12-22T00:50:11;2.92;;;0.63;;
73428;SDS011;61643;49.564;17.412;2023-12-22T00:52:37;2.10;;;0.63;;
73428;SDS011;61643;49.564;17.412;2023-12-22T00:55:03;3.22;;;0.82;;
73428;SDS011;61643;49.564;17.412;2023-12-22T00:57:29;3.03;;;0.63;;
73428;SDS011;61643;49.564;17.412;2023-12-22T00:59:55;3.10;;;1.20;;
73428;SDS011;61643;49.564;17.412;2023-12-22T01:02:21;4.20;;;1.25;;
73428;SDS011;61643;49.564;17.412;2023-12-22T01:04:47;2.75;;;1.02;;
73428;SDS011;61643;49.564;17.412;2023-12-22T01:07:13;4.85;;;1.15;;
73428;SDS011;61643;49.564;17.412;2023-12-22T01:09:39;6.35;;;1.10;;
73428;SDS011;61643;49.564;17.412;2023-12-22T01:12:06;2.33;;;0.60;;
73428;SDS011;61643;49.564;17.412;2023-12-22T01:14:33;5.85;;;0.98;;
73428;SDS011;61643;49.564;17.412;2023-12-22T01:16:59;4.50;;;0.90;;
73428;SDS011;61643;49.564;17.412;2023-12-22T01:19:26;2.58;;;0.65;;
73428;SDS011;61643;49.564;17.412;2023-12-22T01:21:52;7.85;;;1.17;;
73428;SDS011;61643;49.564;17.412;2023-12-22T01:24:18;6.32;;;1.42;;
73428;SDS011;61643;49.564;17.412;2023-12-22T01:26:43;7.65;;;1.27;;
73428;SDS011;61643;49.564;17.412;2023-12-22T01:29:09;4.75;;;1.17;;
73428;SDS011;61643;49.564;17.412;2023-12-22T01:31:35;2.80;;;0.88;;
73428;SDS011;61643;49.564;17.412;2023-12-22T01:34:01;7.57;;;1.23;;
73428;SDS011;61643;49.564;17.412;2023-12-22T01:36:27;3.67;;;0.88;;
73428;SDS011;61643;49.564;17.412;2023-12-22T01:38:53;4.30;;;0.80;;
73428;SDS011;61643;49.564;17.412;2023-12-22T01:41:19;5.90;;;1.20;;
73428;SDS011;61643;49.564;17.412;2023-12-22T01:43:45;8.48;;;1.17;;
73428;SDS011;61643;49.564;17.412;2023-12-22T01:46:11;5.07;;;1.00;;
73428;SDS011;61643;49.564;17.412;2023-12-22T01:48:38;2.42;;;1.02;;
73428;SDS011;61643;49.564;17.412;2023-12-22T01:51:05;5.43;;;0.88;;
73428;SDS011;61643;49.564;17.412;2023-12-22T01:53:32;6.15;;;1.00;;
73428;SDS011;61643;49.564;17.412;2023-12-22T01:55:59;4.88;;;0.90;;
73428;SDS011;61643;49.564;17.412;2023-12-22T01:58:27;5.13;;;0.68;;
73428;SDS011;61643;49.564;17.412;2023-12-22T02:00:54;2.85;;;0.80;;
73428;SDS011;61643;49.564;17.412;2023-12-22T02:03:21;5.63;;;0.90;;
73428;SDS011;61643;49.564;17.412;2023-12-22T02:05:47;4.72;;;0.90;;
73428;SDS011;61643;49.564;17.412;2023-12-22T02:08:13;4.20;;;0.88;;
73428;SDS011;61643;49.564;17.412;2023-12-22T02:10:43;5.32;;;1.20;;
73428;SDS011;61643;49.564;17.412;2023-12-22T02:13:10;9.55;;;1.23;;
73428;SDS011;61643;49.564;17.412;2023-12-22T02:15:36;5.68;;;0.80;;
73428;SDS011;61643;49.564;17.412;2023-12-22T02:20:42;5.20;;;1.27;;
73428;SDS011;61643;49.564;17.412;2023-12-22T02:23:10;8.18;;;0.98;;
73428;SDS011;61643;49.564;17.412;2023-12-22T02:25:35;3.83;;;0.65;;
73428;SDS011;61643;49.564;17.412;2023-12-22T02:28:03;6.32;;;1.25;;
73428;SDS011;61643;49.564;17.412;2023-12-22T02:33:04;10.18;;;1.05;;
73428;SDS011;61643;49.564;17.412;2023-12-22T02:35:32;8.48;;;1.02;;
73428;SDS011;61643;49.564;17.412;2023-12-22T02:38:01;6.68;;;1.05;;
73428;SDS011;61643;49.564;17.412;2023-12-22T02:40:28;6.80;;;0.93;;
73428;SDS011;61643;49.564;17.412;2023-12-22T02:42:55;2.40;;;0.80;;
73428;SDS011;61643;49.564;17.412;2023-12-22T02:45:21;3.05;;;0.82;;
73428;SDS011;61643;49.564;17.412;2023-12-22T02:47:47;3.03;;;0.63;;
73428;SDS011;61643;49.564;17.412;2023-12-22T02:50:14;3.88;;;1.00;;
73428;SDS011;61643;49.564;17.412;2023-12-22T02:52:42;4.13;;;0.90;;
73428;SDS011;61643;49.564;17.412;2023-12-22T02:55:08;7.57;;;1.15;;
73428;SDS011;61643;49.564;17.412;2023-12-22T02:57:34;3.38;;;1.08;;
73428;SDS011;61643;49.564;17.412;2023-12-22T03:00:00;8.57;;;1.17;;
73428;SDS011;61643;49.564;17.412;2023-12-22T03:02:26;7.75;;;1.20;;
73428;SDS011;61643;49.564;17.412;2023-12-22T03:04:52;4.55;;;1.17;;
73428;SDS011;61643;49.564;17.412;2023-12-22T03:07:18;9.50;;;1.08;;
73428;SDS011;61643;49.564;17.412;2023-12-22T03:09:44;3.08;;;0.80;;
73428;SDS011;61643;49.564;17.412;2023-12-22T03:12:11;9.73;;;1.33;;
73428;SDS011;61643;49.564;17.412;2023-12-22T03:14:36;6.53;;;0.93;;
73428;SDS011;61643;49.564;17.412;2023-12-22T03:17:03;3.55;;;0.82;;
73428;SDS011;61643;49.564;17.412;2023-12-22T03:19:30;8.45;;;0.90;;
73428;SDS011;61643;49.564;17.412;2023-12-22T03:21:57;4.85;;;1.10;;
73428;SDS011;61643;49.564;17.412;2023-12-22T03:24:23;7.40;;;1.30;;
73428;SDS011;61643;49.564;17.412;2023-12-22T03:26:50;6.40;;;0.95;;
73428;SDS011;61643;49.564;17.412;2023-12-22T03:29:16;6.43;;;1.38;;
73428;SDS011;61643;49.564;17.412;2023-12-22T03:31:43;6.40;;;1.00;;
73428;SDS011;61643;49.564;17.412;2023-12-22T03:34:09;4.53;;;0.98;;
73428;SDS011;61643;49.564;17.412;2023-12-22T03:36:35;7.35;;;1.05;;
73428;SDS011;61643;49.564;17.412;2023-12-22T03:39:01;2.58;;;0.98;;
73428;SDS011;61643;49.564;17.412;2023-12-22T03:41:28;9.50;;;1.50;;
73428;SDS011;61643;49.564;17.412;2023-12-22T03:43:55;2.88;;;0.82;;
73428;SDS011;61643;49.564;17.412;2023-12-22T03:46:21;10.82;;;1.10;;
73428;SDS011;61643;49.564;17.412;2023-12-22T03:48:49;7.40;;;1.48;;
73428;SDS011;61643;49.564;17.412;2023-12-22T03:51:15;7.28;;;1.05;;
73428;SDS011;61643;49.564;17.412;2023-12-22T03:53:41;3.60;;;0.90;;
73428;SDS011;61643;49.564;17.412;2023-12-22T03:56:08;1.80;;;0.70;;
73428;SDS011;61643;49.564;17.412;2023-12-22T03:58:34;2.58;;;0.80;;
73428;SDS011;61643;49.564;17.412;2023-12-22T04:01:01;7.78;;;1.20;;
73428;SDS011;61643;49.564;17.412;2023-12-22T04:03:27;5.70;;;1.10;;
73428;SDS011;61643;49.564;17.412;2023-12-22T04:05:53;6.90;;;1.00;;
73428;SDS011;61643;49.564;17.412;2023-12-22T04:08:19;4.50;;;0.73;;
73428;SDS011;61643;49.564;17.412;2023-12-22T04:10:46;3.33;;;1.40;;
73428;SDS011;61643;49.564;17.412;2023-12-22T04:13:12;5.95;;;1.08;;
73428;SDS011;61643;49.564;17.412;2023-12-22T04:15:38;5.95;;;1.38;;
73428;SDS011;61643;49.564;17.412;2023-12-22T04:18:04;7.03;;;1.05;;
73428;SDS011;61643;49.564;17.412;2023-12-22T04:20:31;5.03;;;0.95;;
73428;SDS011;61643;49.564;17.412;2023-12-22T04:22:57;4.07;;;0.80;;
73428;SDS011;61643;49.564;17.412;2023-12-22T04:25:23;9.15;;;1.10;;
73428;SDS011;61643;49.564;17.412;2023-12-22T04:27:50;5.85;;;1.20;;
73428;SDS011;61643;49.564;17.412;2023-12-22T04:30:17;3.13;;;1.08;;
73428;SDS011;61643;49.564;17.412;2023-12-22T04:32:43;4.35;;;0.80;;
73428;SDS011;61643;49.564;17.412;2023-12-22T04:35:09;4.20;;;1.20;;
73428;SDS011;61643;49.564;17.412;2023-12-22T04:37:35;4.13;;;0.85;;
73428;SDS011;61643;49.564;17.412;2023-12-22T04:40:01;1.48;;;0.75;;
73428;SDS011;61643;49.564;17.412;2023-12-22T04:42:27;3.47;;;0.90;;
73428;SDS011;61643;49.564;17.412;2023-12-22T04:44:54;5.97;;;1.67;;
73428;SDS011;61643;49.564;17.412;2023-12-22T04:47:20;2.60;;;0.90;;
73428;SDS011;61643;49.564;17.412;2023-12-22T04:49:46;4.80;;;0.88;;
73428;SDS011;61643;49.564;17.412;2023-12-22T04:52:12;8.00;;;1.52;;
73428;SDS011;61643;49.564;17.412;2023-12-22T04:54:38;7.18;;;1.20;;
73428;SDS011;61643;49.564;17.412;2023-12-22T04:57:04;10.05;;;1.10;;
73428;SDS011;61643;49.564;17.412;2023-12-22T04:59:30;5.82;;;1.02;;
73428;SDS011;61643;49.564;17.412;2023-12-22T05:01:56;11.82;;;1.25;;
73428;SDS011;61643;49.564;17.412;2023-12-22T05:04:23;7.47;;;0.93;;
73428;SDS011;61643;49.564;17.412;2023-12-22T05:06:49;5.25;;;1.48;;
73428;SDS011;61643;49.564;17.412;2023-12-22T05:09:15;7.82;;;0.88;;
73428;SDS011;61643;49.564;17.412;2023-12-22T05:11:42;9.30;;;2.85;;
73428;SDS011;61643;49.564;17.412;2023-12-22T05:14:08;12.80;;;3.75;;
73428;SDS011;61643;49.564;17.412;2023-12-22T05:16:35;5.38;;;1.40;;
73428;SDS011;61643;49.564;17.412;2023-12-22T05:19:01;6.53;;;1.50;;
73428;SDS011;61643;49.564;17.412;2023-12-22T05:21:27;5.40;;;1.23;;
73428;SDS011;61643;49.564;17.412;2023-12-22T05:23:55;3.30;;;1.05;;
73428;SDS011;61643;49.564;17.412;2023-12-22T05:26:21;5.15;;;1.33;;
73428;SDS011;61643;49.564;17.412;2023-12-22T05:28:48;7.53;;;1.60;;
73428;SDS011;61643;49.564;17.412;2023-12-22T05:31:17;4.95;;;1.10;;
73428;SDS011;61643;49.564;17.412;2023-12-22T05:33:43;3.65;;;1.00;;
73428;SDS011;61643;49.564;17.412;2023-12-22T05:36:12;8.57;;;1.35;;
73428;SDS011;61643;49.564;17.412;2023-12-22T05:38:38;6.85;;;1.30;;
73428;SDS011;61643;49.564;17.412;2023-12-22T05:41:04;8.20;;;0.90;;
73428;SDS011;61643;49.564;17.412;2023-12-22T05:43:32;10.05;;;1.23;;
73428;SDS011;61643;49.564;17.412;2023-12-22T05:45:59;6.53;;;1.17;;
73428;SDS011;61643;49.564;17.412;2023-12-22T05:48:25;7.65;;;1.30;;
73428;SDS011;61643;49.564;17.412;2023-12-22T05:50:56;8.13;;;1.23;;
73428;SDS011;61643;49.564;17.412;2023-12-22T05:53:23;8.63;;;1.23;;
73428;SDS011;61643;49.564;17.412;2023-12-22T05:55:49;4.75;;;1.10;;
73428;SDS011;61643;49.564;17.412;2023-12-22T05:58:15;4.18;;;0.90;;
73428;SDS011;61643;49.564;17.412;2023-12-22T06:00:41;5.22;;;0.98;;
73428;SDS011;61643;49.564;17.412;2023-12-22T06:03:07;5.68;;;1.08;;
73428;SDS011;61643;49.564;17.412;2023-12-22T06:05:33;4.47;;;0.85;;
73428;SDS011;61643;49.564;17.412;2023-12-22T06:07:59;5.47;;;1.38;;
73428;SDS011;61643;49.564;17.412;2023-12-22T06:10:25;8.18;;;1.65;;
73428;SDS011;61643;49.564;17.412;2023-12-22T06:12:51;7.40;;;1.58;;
73428;SDS011;61643;49.564;17.412;2023-12-22T06:15:17;6.10;;;0.95;;
73428;SDS011;61643;49.564;17.412;2023-12-22T06:17:42;7.05;;;0.90;;
73428;SDS011;61643;49.564;17.412;2023-12-22T06:20:09;3.47;;;0.95;;
73428;SDS011;61643;49.564;17.412;2023-12-22T06:22:35;8.15;;;1.25;;
73428;SDS011;61643;49.564;17.412;2023-12-22T06:25:01;7.15;;;1.30;;
73428;SDS011;61643;49.564;17.412;2023-12-22T06:27:33;4.78;;;0.90;;
73428;SDS011;61643;49.564;17.412;2023-12-22T06:29:59;7.32;;;1.88;;
73428;SDS011;61643;49.564;17.412;2023-12-22T06:32:25;2.95;;;1.00;;
73428;SDS011;61643;49.564;17.412;2023-12-22T06:34:51;2.53;;;0.82;;
73428;SDS011;61643;49.564;17.412;2023-12-22T06:37:17;3.03;;;1.00;;
73428;SDS011;61643;49.564;17.412;2023-12-22T06:39:43;4.10;;;1.35;;
73428;SDS011;61643;49.564;17.412;2023-12-22T06:42:09;5.15;;;1.27;;
73428;SDS011;61643;49.564;17.412;2023-12-22T06:44:37;6.32;;;1.63;;
73428;SDS011;61643;49.564;17.412;2023-12-22T06:47:03;7.57;;;1.30;;
73428;SDS011;61643;49.564;17.412;2023-12-22T06:49:30;3.70;;;1.40;;
73428;SDS011;61643;49.564;17.412;2023-12-22T06:51:56;5.53;;;1.83;;
73428;SDS011;61643;49.564;17.412;2023-12-22T06:54:22;12.70;;;3.45;;
73428;SDS011;61643;49.564;17.412;2023-12-22T06:56:48;9.98;;;2.40;;
73428;SDS011;61643;49.564;17.412;2023-12-22T06:59:14;12.07;;;2.90;;
73428;SDS011;61643;49.564;17.412;2023-12-22T07:01:40;9.48;;;1.88;;
73428;SDS011;61643;49.564;17.412;2023-12-22T07:04:06;12.00;;;3.10;;
73428;SDS011;61643;49.564;17.412;2023-12-22T07:06:32;15.50;;;3.72;;
73428;SDS011;61643;49.564;17.412;2023-12-22T07:11:37;13.98;;;3.88;;
73428;SDS011;61643;49.564;17.412;2023-12-22T07:14:04;12.88;;;2.88;;
73428;SDS011;61643;49.564;17.412;2023-12-22T07:16:30;8.75;;;2.67;;
73428;SDS011;61643;49.564;17.412;2023-12-22T07:18:56;11.43;;;2.20;;
73428;SDS011;61643;49.564;17.412;2023-12-22T07:21:22;14.27;;;3.13;;
73428;SDS011;61643;49.564;17.412;2023-12-22T07:23:48;8.98;;;2.10;;
73428;SDS011;61643;49.564;17.412;2023-12-22T07:26:13;9.43;;;2.20;;
73428;SDS011;61643;49.564;17.412;2023-12-22T07:28:40;8.23;;;2.33;;
73428;SDS011;61643;49.564;17.412;2023-12-22T07:31:06;14.35;;;3.97;;
73428;SDS011;61643;49.564;17.412;2023-12-22T07:33:32;16.33;;;3.95;;
73428;SDS011;61643;49.564;17.412;2023-12-22T07:36:00;17.20;;;5.40;;
73428;SDS011;61643;49.564;17.412;2023-12-22T07:38:26;24.58;;;6.80;;
73428;SDS011;61643;49.564;17.412;2023-12-22T07:40:54;11.80;;;4.03;;
73428;SDS011;61643;49.564;17.412;2023-12-22T07:43:20;13.68;;;3.58;;
73428;SDS011;61643;49.564;17.412;2023-12-22T07:45:45;11.25;;;4.47;;
73428;SDS011;61643;49.564;17.412;2023-12-22T07:48:13;9.07;;;3.03;;
73428;SDS011;61643;49.564;17.412;2023-12-22T07:50:40;10.40;;;1.45;;
73428;SDS011;61643;49.564;17.412;2023-12-22T07:53:07;6.38;;;1.60;;
73428;SDS011;61643;49.564;17.412;2023-12-22T07:55:34;9.30;;;3.50;;
73428;SDS011;61643;49.564;17.412;2023-12-22T07:58:00;13.25;;;5.18;;
73428;SDS011;61643;49.564;17.412;2023-12-22T08:00:26;12.00;;;2.78;;
73428;SDS011;61643;49.564;17.412;2023-12-22T08:02:53;8.95;;;1.92;;
73428;SDS011;61643;49.564;17.412;2023-12-22T08:05:19;11.95;;;3.85;;
73428;SDS011;61643;49.564;17.412;2023-12-22T08:07:45;7.18;;;2.10;;
73428;SDS011;61643;49.564;17.412;2023-12-22T08:10:11;6.05;;;1.60;;
73428;SDS011;61643;49.564;17.412;2023-12-22T08:12:37;6.25;;;1.23;;
73428;SDS011;61643;49.564;17.412;2023-12-22T08:15:03;8.25;;;2.20;;
73428;SDS011;61643;49.564;17.412;2023-12-22T08:17:29;6.13;;;1.90;;
73428;SDS011;61643;49.564;17.412;2023-12-22T08:19:55;6.43;;;0.93;;
73428;SDS011;61643;49.564;17.412;2023-12-22T08:22:22;4.03;;;0.88;;
73428;SDS011;61643;49.564;17.412;2023-12-22T08:24:49;6.75;;;1.60;;
73428;SDS011;61643;49.564;17.412;2023-12-22T08:27:15;3.53;;;0.80;;
73428;SDS011;61643;49.564;17.412;2023-12-22T08:29:41;7.88;;;1.30;;
73428;SDS011;61643;49.564;17.412;2023-12-22T08:32:07;6.22;;;1.30;;
73428;SDS011;61643;49.564;17.412;2023-12-22T08:34:33;7.90;;;1.92;;
73428;SDS011;61643;49.564;17.412;2023-12-22T08:36:59;5.60;;;1.90;;
73428;SDS011;61643;49.564;17.412;2023-12-22T08:39:26;4.38;;;0.93;;
73428;SDS011;61643;49.564;17.412;2023-12-22T08:41:52;7.53;;;2.15;;
73428;SDS011;61643;49.564;17.412;2023-12-22T08:44:18;5.90;;;1.17;;
73428;SDS011;61643;49.564;17.412;2023-12-22T08:46:44;11.82;;;3.38;;
73428;SDS011;61643;49.564;17.412;2023-12-22T08:49:10;36.80;;;11.32;;
73428;SDS011;61643;49.564;17.412;2023-12-22T08:51:37;23.90;;;7.13;;
73428;SDS011;61643;49.564;17.412;2023-12-22T08:54:03;15.18;;;5.18;;
73428;SDS011;61643;49.564;17.412;2023-12-22T08:56:30;7.57;;;2.25;;
73428;SDS011;61643;49.564;17.412;2023-12-22T08:58:56;6.53;;;1.63;;
73428;SDS011;61643;49.564;17.412;2023-12-22T09:01:24;11.05;;;3.90;;
73428;SDS011;61643;49.564;17.412;2023-12-22T09:03:51;12.07;;;2.30;;
73428;SDS011;61643;49.564;17.412;2023-12-22T09:06:18;6.15;;;1.70;;
73428;SDS011;61643;49.564;17.412;2023-12-22T09:08:48;3.38;;;1.30;;
73428;SDS011;61643;49.564;17.412;2023-12-22T09:11:16;1.83;;;0.85;;
73428;SDS011;61643;49.564;17.412;2023-12-22T09:13:43;3.38;;;0.77;;
73428;SDS011;61643;49.564;17.412;2023-12-22T09:16:09;3.17;;;1.05;;
73428;SDS011;61643;49.564;17.412;2023-12-22T09:18:36;3.13;;;1.02;;
73428;SDS011;61643;49.564;17.412;2023-12-22T09:21:02;3.15;;;0.95;;
73428;SDS011;61643;49.564;17.412;2023-12-22T09:23:28;4.53;;;0.90;;
73428;SDS011;61643;49.564;17.412;2023-12-22T09:25:55;1.02;;;0.77;;
73428;SDS011;61643;49.564;17.412;2023-12-22T09:28:21;4.13;;;0.85;;
73428;SDS011;61643;49.564;17.412;2023-12-22T09:30:46;5.75;;;0.98;;
73428;SDS011;61643;49.564;17.412;2023-12-22T09:33:12;1.65;;;0.60;;
73428;SDS011;61643;49.564;17.412;2023-12-22T09:35:38;4.95;;;0.88;;
73428;SDS011;61643;49.564;17.412;2023-12-22T09:38:09;2.20;;;0.75;;
73428;SDS011;61643;49.564;17.412;2023-12-22T09:40:36;1.80;;;0.52;;
73428;SDS011;61643;49.564;17.412;2023-12-22T09:43:02;2.38;;;0.80;;
73428;SDS011;61643;49.564;17.412;2023-12-22T09:47:58;1.38;;;0.50;;
73428;SDS011;61643;49.564;17.412;2023-12-22T09:50:26;3.13;;;0.50;;
73428;SDS011;61643;49.564;17.412;2023-12-22T09:52:52;1.90;;;0.60;;
73428;SDS011;61643;49.564;17.412;2023-12-22T09:55:21;4.53;;;0.75;;
73428;SDS011;61643;49.564;17.412;2023-12-22T09:57:47;1.63;;;0.50;;
73428;SDS011;61643;49.564;17.412;2023-12-22T10:00:18;4.30;;;0.85;;
73428;SDS011;61643;49.564;17.412;2023-12-22T10:02:44;3.00;;;0.50;;
73428;SDS011;61643;49.564;17.412;2023-12-22T10:05:11;2.33;;;0.70;;
73428;SDS011;61643;49.564;17.412;2023-12-22T10:07:44;4.75;;;0.95;;
73428;SDS011;61643;49.564;17.412;2023-12-22T10:10:11;2.75;;;0.98;;
73428;SDS011;61643;49.564;17.412;2023-12-22T10:12:38;5.47;;;0.88;;
73428;SDS011;61643;49.564;17.412;2023-12-22T10:15:05;4.30;;;1.05;;
73428;SDS011;61643;49.564;17.412;2023-12-22T10:17:35;2.17;;;0.50;;
73428;SDS011;61643;49.564;17.412;2023-12-22T10:20:01;5.50;;;1.20;;
73428;SDS011;61643;49.564;17.412;2023-12-22T10:22:29;1.65;;;0.50;;
73428;SDS011;61643;49.564;17.412;2023-12-22T10:24:55;3.47;;;0.70;;
73428;SDS011;61643;49.564;17.412;2023-12-22T10:27:21;3.08;;;0.80;;
73428;SDS011;61643;49.564;17.412;2023-12-22T10:29:50;3.08;;;0.85;;
73428;SDS011;61643;49.564;17.412;2023-12-22T10:32:20;4.95;;;0.82;;
73428;SDS011;61643;49.564;17.412;2023-12-22T10:34:47;1.42;;;0.55;;
73428;SDS011;61643;49.564;17.412;2023-12-22T10:37:13;2.72;;;0.80;;
73428;SDS011;61643;49.564;17.412;2023-12-22T10:39:39;4.75;;;0.77;;
73428;SDS011;61643;49.564;17.412;2023-12-22T10:42:05;3.33;;;0.70;;
73428;SDS011;61643;49.564;17.412;2023-12-22T10:44:31;1.08;;;0.40;;
73428;SDS011;61643;49.564;17.412;2023-12-22T10:46:58;1.63;;;0.60;;
73428;SDS011;61643;49.564;17.412;2023-12-22T10:49:25;3.88;;;0.85;;
73428;SDS011;61643;49.564;17.412;2023-12-22T10:51:51;3.45;;;0.40;;
73428;SDS011;61643;49.564;17.412;2023-12-22T11:12:23;3.13;;;0.85;;
73428;SDS011;61643;49.564;17.412;2023-12-22T11:14:50;1.35;;;0.93;;
73428;SDS011;61643;49.564;17.412;2023-12-22T11:17:21;5.40;;;1.20;;
73428;SDS011;61643;49.564;17.412;2023-12-22T11:19:49;1.10;;;0.55;;
73428;SDS011;61643;49.564;17.412;2023-12-22T11:22:16;1.17;;;0.40;;
73428;SDS011;61643;49.564;17.412;2023-12-22T11:24:47;1.63;;;0.45;;
73428;SDS011;61643;49.564;17.412;2023-12-22T11:27:18;3.45;;;0.70;;
73428;SDS011;61643;49.564;17.412;2023-12-22T11:29:48;2.78;;;0.60;;
73428;SDS011;61643;49.564;17.412;2023-12-22T11:32:17;3.97;;;1.35;;
73428;SDS011;61643;49.564;17.412;2023-12-22T11:34:45;4.13;;;0.80;;
73428;SDS011;61643;49.564;17.412;2023-12-22T11:37:12;2.00;;;1.40;;
73428;SDS011;61643;49.564;17.412;2023-12-22T11:39:43;3.78;;;1.60;;
73428;SDS011;61643;49.564;17.412;2023-12-22T11:42:45;2.65;;;0.73;;
73428;SDS011;61643;49.564;17.412;2023-12-22T11:45:11;1.55;;;0.90;;
73428;SDS011;61643;49.564;17.412;2023-12-22T11:47:42;2.00;;;0.98;;
73428;SDS011;61643;49.564;17.412;2023-12-22T11:50:09;6.10;;;3.00;;
73428;SDS011;61643;49.564;17.412;2023-12-22T11:52:36;3.13;;;1.80;;
73428;SDS011;61643;49.564;17.412;2023-12-22T11:55:02;3.08;;;2.00;;
73428;SDS011;61643;49.564;17.412;2023-12-22T11:57:36;3.13;;;1.60;;
73428;SDS011;61643;49.564;17.412;2023-12-22T12:00:04;5.53;;;1.80;;
73428;SDS011;61643;49.564;17.412;2023-12-22T12:02:33;3.95;;;2.03;;
73428;SDS011;61643;49.564;17.412;2023-12-22T12:05:03;12.30;;;4.90;;
73428;SDS011;61643;49.564;17.412;2023-12-22T12:07:48;3.83;;;2.30;;
73428;SDS011;61643;49.564;17.412;2023-12-22T12:13:11;3.13;;;1.05;;
73428;SDS011;61643;49.564;17.412;2023-12-22T12:15:41;14.50;;;4.15;;
73428;SDS011;61643;49.564;17.412;2023-12-22T12:18:07;3.65;;;1.00;;
73428;SDS011;61643;49.564;17.412;2023-12-22T12:20:34;5.82;;;1.90;;
73428;SDS011;61643;49.564;17.412;2023-12-22T12:23:01;3.67;;;1.88;;
73428;SDS011;61643;49.564;17.412;2023-12-22T12:25:28;6.20;;;2.78;;
73428;SDS011;61643;49.564;17.412;2023-12-22T12:28:02;5.45;;;1.45;;
73428;SDS011;61643;49.564;17.412;2023-12-22T12:30:30;10.90;;;3.50;;
73428;SDS011;61643;49.564;17.412;2023-12-22T12:32:58;10.75;;;4.38;;
73428;SDS011;61643;49.564;17.412;2023-12-22T12:35:28;25.02;;;7.72;;
73428;SDS011;61643;49.564;17.412;2023-12-22T12:37:55;18.85;;;5.15;;
73428;SDS011;61643;49.564;17.412;2023-12-22T12:40:21;2.22;;;1.50;;
73428;SDS011;61643;49.564;17.412;2023-12-22T12:42:50;2.88;;;1.25;;
73428;SDS011;61643;49.564;17.412;2023-12-22T12:45:21;1.33;;;1.02;;
73428;SDS011;61643;49.564;17.412;2023-12-22T12:48:01;1.65;;;0.90;;
73428;SDS011;61643;49.564;17.412;2023-12-22T12:50:28;3.40;;;0.80;;
73428;SDS011;61643;49.564;17.412;2023-12-22T12:52:55;1.95;;;1.08;;
73428;SDS011;61643;49.564;17.412;2023-12-22T12:55:22;6.18;;;2.10;;
73428;SDS011;61643;49.564;17.412;2023-12-22T12:57:52;4.75;;;1.85;;
73428;SDS011;61643;49.564;17.412;2023-12-22T13:00:32;2.88;;;1.33;;
73428;SDS011;61643;49.564;17.412;2023-12-22T13:03:02;1.30;;;0.75;;
73428;SDS011;61643;49.564;17.412;2023-12-22T13:05:30;1.98;;;0.90;;
73428;SDS011;61643;49.564;17.412;2023-12-22T13:08:07;2.97;;;1.35;;
73428;SDS011;61643;49.564;17.412;2023-12-22T13:10:34;1.85;;;1.08;;
73428;SDS011;61643;49.564;17.412;2023-12-22T13:13:00;6.10;;;3.30;;
73428;SDS011;61643;49.564;17.412;2023-12-22T13:15:26;5.65;;;2.65;;
73428;SDS011;61643;49.564;17.412;2023-12-22T13:17:52;4.05;;;1.80;;
73428;SDS011;61643;49.564;17.412;2023-12-22T13:20:18;1.92;;;1.00;;
73428;SDS011;61643;49.564;17.412;2023-12-22T13:22:44;4.90;;;1.23;;
73428;SDS011;61643;49.564;17.412;2023-12-22T13:25:10;6.88;;;1.40;;
73428;SDS011;61643;49.564;17.412;2023-12-22T13:27:46;2.15;;;0.65;;
73428;SDS011;61643;49.564;17.412;2023-12-22T13:30:18;3.53;;;0.93;;
73428;SDS011;61643;49.564;17.412;2023-12-22T13:33:00;1.23;;;0.60;;
73428;SDS011;61643;49.564;17.412;2023-12-22T13:35:26;4.10;;;1.05;;
73428;SDS011;61643;49.564;17.412;2023-12-22T13:37:54;3.35;;;0.70;;
73428;SDS011;61643;49.564;17.412;2023-12-22T13:40:20;2.38;;;0.52;;
73428;SDS011;61643;49.564;17.412;2023-12-22T13:42:56;1.08;;;0.65;;
73428;SDS011;61643;49.564;17.412;2023-12-22T13:45:27;2.50;;;0.90;;
73428;SDS011;61643;49.564;17.412;2023-12-22T13:47:55;3.30;;;1.80;;
73428;SDS011;61643;49.564;17.412;2023-12-22T13:50:21;7.25;;;1.80;;
73428;SDS011;61643;49.564;17.412;2023-12-22T13:52:50;3.40;;;1.30;;
73428;SDS011;61643;49.564;17.412;2023-12-22T13:55:18;2.58;;;0.77;;
73428;SDS011;61643;49.564;17.412;2023-12-22T13:57:45;1.38;;;0.90;;
73428;SDS011;61643;49.564;17.412;2023-12-22T14:02:47;2.90;;;0.90;;
73428;SDS011;61643;49.564;17.412;2023-12-22T14:05:16;3.90;;;0.95;;
73428;SDS011;61643;49.564;17.412;2023-12-22T14:07:44;4.20;;;0.80;;
73428;SDS011;61643;49.564;17.412;2023-12-22T14:10:10;2.45;;;0.80;;
73428;SDS011;61643;49.564;17.412;2023-12-22T14:12:37;4.47;;;1.42;;
73428;SDS011;61643;49.564;17.412;2023-12-22T14:15:12;8.95;;;3.60;;
73428;SDS011;61643;49.564;17.412;2023-12-22T14:17:38;6.47;;;2.50;;
73428;SDS011;61643;49.564;17.412;2023-12-22T14:20:05;3.72;;;1.63;;
73428;SDS011;61643;49.564;17.412;2023-12-22T14:24:59;4.22;;;1.02;;
73428;SDS011;61643;49.564;17.412;2023-12-22T14:27:25;1.08;;;0.90;;
73428;SDS011;61643;49.564;17.412;2023-12-22T14:29:51;2.72;;;1.50;;
73428;SDS011;61643;49.564;17.412;2023-12-22T14:32:17;12.85;;;4.10;;
73428;SDS011;61643;49.564;17.412;2023-12-22T14:34:44;20.80;;;7.97;;
73428;SDS011;61643;49.564;17.412;2023-12-22T14:37:14;19.83;;;7.03;;
73428;SDS011;61643;49.564;17.412;2023-12-22T14:39:43;11.65;;;5.78;;
73428;SDS011;61643;49.564;17.412;2023-12-22T14:42:10;9.27;;;6.13;;
73428;SDS011;61643;49.564;17.412;2023-12-22T14:44:36;4.57;;;2.10;;
73428;SDS011;61643;49.564;17.412;2023-12-22T14:47:01;7.05;;;3.38;;
73428;SDS011;61643;49.564;17.412;2023-12-22T14:49:27;10.75;;;5.20;;
73428;SDS011;61643;49.564;17.412;2023-12-22T14:51:53;9.20;;;5.47;;
73428;SDS011;61643;49.564;17.412;2023-12-22T14:54:22;3.05;;;1.70;;
73428;SDS011;61643;49.564;17.412;2023-12-22T14:56:48;22.50;;;12.02;;
73428;SDS011;61643;49.564;17.412;2023-12-22T14:59:14;12.77;;;6.38;;
73428;SDS011;61643;49.564;17.412;2023-12-22T15:01:40;9.77;;;3.97;;
73428;SDS011;61643;49.564;17.412;2023-12-22T15:04:06;14.82;;;6.15;;
73428;SDS011;61643;49.564;17.412;2023-12-22T15:06:36;5.40;;;2.25;;
73428;SDS011;61643;49.564;17.412;2023-12-22T15:09:07;8.98;;;2.13;;